Time;durP1;ratioP1;P1;durP2;ratioP2;P2;SDS_P1;SDS_P2;PMS_P1;PMS_P2;Temp;Humidity;BMP_temperature;BMP_pressure;BME280_temperature;BME280_humidity;BME280_pressure;Samples;Min_cycle;Max_cycle;Signal;HPM_P1;HPM_P2
2021/01/22 00:00:09;;;;;;;21.58;12.35;;;;;;;6.44;57.72;94201.88;4971348;28;20042;-76
2021/01/22 00:02:35;;;;;;;23.23;15.95;;;;;;;6.49;57.21;94211.63;4972907;28;20015;-76
2021/01/22 00:05:01;;;;;;;22.65;14.88;;;;;;;6.45;57.65;94226.28;4967223;28;20041;-76
2021/01/22 00:07:26;;;;;;;21.15;15.00;;;;;;;6.49;57.14;94228.16;4969642;28;20467;-76
2021/01/22 00:09:52;;;;;;;20.45;13.13;;;;;;;6.43;57.46;94234.41;4971564;28;20050;-76
2021/01/22 00:12:18;;;;;;;23.75;14.40;;;;;;;6.38;57.73;94210.75;4965797;28;20077;-78
2021/01/22 00:14:43;;;;;;;20.98;13.82;;;;;;;6.37;57.45;94224.91;4970029;28;20029;-75
2021/01/22 00:17:09;;;;;;;23.77;16.35;;;;;;;6.39;57.21;94214.97;4944255;28;20558;-76
2021/01/22 00:19:35;;;;;;;27.85;16.38;;;;;;;6.24;58.06;94193.06;4949380;28;20038;-77
2021/01/22 00:22:00;;;;;;;23.55;15.40;;;;;;;6.22;58.06;94206.41;4932247;28;20048;-77
2021/01/22 00:24:25;;;;;;;25.08;15.20;;;;;;;6.32;58.15;94206.50;4954023;28;20271;-77
2021/01/22 00:26:51;;;;;;;23.48;15.00;;;;;;;6.34;58.19;94204.44;4969977;28;20045;-77
2021/01/22 00:29:16;;;;;;;26.88;15.90;;;;;;;6.25;58.67;94205.94;4971839;28;20022;-76
2021/01/22 00:31:42;;;;;;;24.15;13.77;;;;;;;6.28;58.78;94202.81;4960960;28;20059;-77
2021/01/22 00:34:07;;;;;;;20.00;12.57;;;;;;;6.37;58.97;94209.16;4972813;28;20038;-77
2021/01/22 00:36:33;;;;;;;19.83;12.68;;;;;;;6.37;58.85;94188.16;4966236;28;20168;-77
2021/01/22 00:38:58;;;;;;;24.38;14.43;;;;;;;6.54;58.65;94216.91;4954747;28;20023;-77
2021/01/22 00:41:24;;;;;;;22.15;13.18;;;;;;;6.62;58.11;94216.41;4956240;28;20464;-77
2021/01/22 00:43:49;;;;;;;23.70;14.80;;;;;;;6.63;57.92;94211.97;4968999;28;20035;-77
2021/01/22 00:46:15;;;;;;;22.55;14.32;;;;;;;6.63;57.84;94218.00;4974247;28;20442;-77
2021/01/22 00:48:40;;;;;;;24.15;16.48;;;;;;;6.58;57.88;94209.28;4973284;28;20046;-77
2021/01/22 00:51:06;;;;;;;21.20;14.48;;;;;;;6.42;58.50;94201.31;4975302;28;20496;-77
2021/01/22 00:53:31;;;;;;;22.45;15.63;;;;;;;6.54;58.44;94230.03;4961665;28;20031;-77
2021/01/22 00:55:57;;;;;;;20.90;14.05;;;;;;;6.53;57.88;94210.06;4972821;28;20043;-77
2021/01/22 00:58:22;;;;;;;26.10;15.15;;;;;;;6.50;58.51;94203.47;4942526;28;20081;-77
2021/01/22 01:00:47;;;;;;;21.50;14.32;;;;;;;6.54;58.48;94209.03;4963790;28;20038;-77
2021/01/22 01:03:13;;;;;;;24.25;15.38;;;;;;;6.53;58.26;94181.97;4966787;28;20046;-77
2021/01/22 01:05:38;;;;;;;21.50;14.85;;;;;;;6.63;58.13;94185.69;4975153;28;20026;-77
2021/01/22 01:08:04;;;;;;;29.67;16.50;;;;;;;6.70;57.63;94207.25;4971782;28;20177;-77
2021/01/22 01:10:29;;;;;;;25.65;18.70;;;;;;;6.67;57.50;94176.25;4973223;28;20057;-77
2021/01/22 01:12:55;;;;;;;22.30;16.52;;;;;;;6.63;57.33;94186.50;4962430;28;20558;-77
2021/01/22 01:15:21;;;;;;;26.15;16.67;;;;;;;6.62;57.67;94184.91;4956685;28;20450;-77
2021/01/22 01:17:46;;;;;;;19.42;13.80;;;;;;;6.64;57.68;94188.06;4972245;28;20061;-77
2021/01/22 01:20:12;;;;;;;23.05;12.77;;;;;;;6.63;58.10;94173.34;4976179;28;20088;-77
2021/01/22 01:22:38;;;;;;;19.75;13.25;;;;;;;6.57;58.22;94170.94;4970167;28;20046;-77
2021/01/22 01:25:06;;;;;;;20.27;12.65;;;;;;;6.64;58.16;94176.78;4956022;28;20038;-77
2021/01/22 01:27:31;;;;;;;19.25;12.38;;;;;;;6.67;57.88;94192.00;4972066;28;20047;-77
2021/01/22 01:29:57;;;;;;;19.63;11.98;;;;;;;6.64;57.75;94187.28;4970612;28;20035;-78
2021/01/22 01:32:22;;;;;;;19.15;12.63;;;;;;;6.59;57.75;94168.88;4976900;28;20044;-77
2021/01/22 01:34:48;;;;;;;21.10;13.52;;;;;;;6.59;57.97;94167.03;4969655;28;20046;-77
2021/01/22 01:37:14;;;;;;;19.25;12.55;;;;;;;6.52;58.69;94158.59;4957063;28;20048;-77
2021/01/22 01:39:39;;;;;;;21.48;12.73;;;;;;;6.52;58.92;94156.75;4967402;28;20165;-77
2021/01/22 01:42:04;;;;;;;15.30;10.65;;;;;;;6.59;58.52;94147.88;4969188;28;20035;-77
2021/01/22 01:44:30;;;;;;;17.85;11.82;;;;;;;6.64;58.82;94150.50;4972334;28;20022;-77
2021/01/22 01:46:55;;;;;;;17.60;11.27;;;;;;;6.72;58.41;94152.66;4973662;28;20113;-77
2021/01/22 01:49:22;;;;;;;24.05;13.95;;;;;;;6.78;58.03;94154.25;4971989;28;20065;-77
2021/01/22 01:51:47;;;;;;;25.20;15.70;;;;;;;6.73;58.92;94154.22;4955691;28;20407;-77
2021/01/22 01:54:13;;;;;;;44.30;29.98;;;;;;;6.64;58.73;94147.88;4966501;28;20043;-77
2021/01/22 01:56:40;;;;;;;40.60;24.70;;;;;;;6.69;57.57;94150.53;4973344;28;20038;-77
2021/01/22 01:59:05;;;;;;;36.85;24.38;;;;;;;6.64;57.40;94158.41;4969582;28;20051;-77
2021/01/22 02:01:35;;;;;;;30.85;20.95;;;;;;;6.60;57.61;94144.97;4972131;28;20045;-77
2021/01/22 02:04:01;;;;;;;32.28;20.20;;;;;;;6.42;58.69;94138.31;4970366;28;20315;-77
2021/01/22 02:06:27;;;;;;;31.20;20.08;;;;;;;6.43;58.75;94139.91;4968556;28;20889;-77
2021/01/22 02:08:52;;;;;;;25.63;18.77;;;;;;;6.47;58.91;94151.47;4974736;28;20083;-77
2021/01/22 02:11:18;;;;;;;28.13;19.05;;;;;;;6.56;59.19;94148.34;4973462;28;20026;-77
2021/01/22 02:13:46;;;;;;;28.00;19.05;;;;;;;6.52;59.01;94142.81;4970542;28;20390;-77
2021/01/22 02:16:12;;;;;;;28.88;17.88;;;;;;;6.59;59.17;94139.97;4968558;28;20554;-77
2021/01/22 02:18:40;;;;;;;28.35;18.10;;;;;;;6.65;58.57;94152.88;4972583;28;20097;-77
2021/01/22 02:21:20;;;;;;;27.00;18.05;;;;;;;6.64;58.59;94137.38;4970197;28;20046;-77
2021/01/22 02:23:47;;;;;;;28.23;17.23;;;;;;;6.59;59.16;94117.16;4972215;28;20027;-77
2021/01/22 02:26:15;;;;;;;25.55;15.52;;;;;;;6.69;59.59;94132.94;4970981;28;20036;-77
2021/01/22 02:28:43;;;;;;;28.50;17.10;;;;;;;6.74;59.49;94124.31;4974766;28;20038;-77
2021/01/22 02:31:13;;;;;;;29.92;20.05;;;;;;;6.75;59.15;94136.38;4960463;28;20046;-78
2021/01/22 02:33:39;;;;;;;29.95;21.02;;;;;;;6.74;58.46;94132.97;4959199;28;20100;-78
2021/01/22 02:36:05;;;;;;;41.42;25.33;;;;;;;6.62;58.62;94121.09;4968588;28;20054;-76
2021/01/22 02:38:31;;;;;;;36.17;23.95;;;;;;;6.68;58.67;94131.38;4956752;28;20274;-78
2021/01/22 02:40:58;;;;;;;31.90;18.92;;;;;;;6.59;58.97;94124.22;4953237;28;20380;-78
2021/01/22 02:43:26;;;;;;;28.38;20.00;;;;;;;6.60;58.89;94137.09;4971974;28;20120;-76
2021/01/22 02:45:52;;;;;;;29.10;18.90;;;;;;;6.58;58.72;94130.53;4954140;28;20381;-76
2021/01/22 02:48:18;;;;;;;29.30;18.75;;;;;;;6.56;59.08;94135.22;4969727;28;20030;-78
2021/01/22 02:50:47;;;;;;;31.38;20.65;;;;;;;6.47;58.59;94119.97;4955115;28;20609;-78
2021/01/22 02:53:12;;;;;;;40.10;27.23;;;;;;;6.51;58.13;94136.78;4971547;28;20052;-76
2021/01/22 02:55:38;;;;;;;43.55;27.45;;;;;;;6.47;58.92;94142.81;4955338;28;20499;-78
2021/01/22 02:58:14;;;;;;;39.05;29.40;;;;;;;6.44;59.11;94131.00;4950424;28;20035;-78
2021/01/22 03:00:45;;;;;;;33.35;22.23;;;;;;;6.39;59.79;94123.09;4956387;28;20047;-78
2021/01/22 03:03:39;;;;;;;36.28;23.35;;;;;;;6.45;59.31;94143.03;4969380;28;20047;-78
2021/01/22 03:06:07;;;;;;;24.33;15.70;;;;;;;6.38;59.80;94139.06;4965621;28;20046;-76
2021/01/22 03:08:35;;;;;;;23.13;14.75;;;;;;;6.37;60.13;94135.66;4965954;28;20032;-78
2021/01/22 03:11:05;;;;;;;22.63;15.05;;;;;;;6.37;60.20;94138.28;4969560;28;20126;-78
2021/01/22 03:13:32;;;;;;;27.10;16.77;;;;;;;6.27;60.57;94135.59;4967648;28;20070;-76
2021/01/22 03:16:00;;;;;;;24.25;17.17;;;;;;;6.22;61.00;94114.56;4973130;28;20038;-76
2021/01/22 03:18:25;;;;;;;21.15;16.27;;;;;;;6.34;60.40;94130.94;4967215;28;20795;-76
2021/01/22 03:20:51;;;;;;;26.85;18.65;;;;;;;6.37;59.98;94130.41;4972907;28;20054;-77
2021/01/22 03:23:18;;;;;;;32.85;20.63;;;;;;;6.21;59.97;94131.34;4967889;28;20026;-78
2021/01/22 03:25:44;;;;;;;29.77;17.38;;;;;;;6.01;61.67;94133.88;4973856;28;20221;-78
2021/01/22 03:28:10;;;;;;;21.45;16.30;;;;;;;6.01;61.91;94126.00;4952938;28;20051;-77
2021/01/22 03:30:37;;;;;;;27.20;16.63;;;;;;;6.14;61.20;94149.16;4971612;28;20096;-77
2021/01/22 03:33:03;;;;;;;30.17;16.63;;;;;;;6.15;60.63;94142.09;4966174;28;20023;-78
2021/01/22 03:35:29;;;;;;;26.75;17.88;;;;;;;6.16;60.44;94143.69;4972417;28;20031;-78
2021/01/22 03:37:56;;;;;;;27.52;17.65;;;;;;;6.10;59.92;94116.59;4967585;28;20081;-78
2021/01/22 03:40:22;;;;;;;23.38;16.50;;;;;;;6.05;61.16;94122.63;4971165;28;20047;-78
2021/01/22 03:42:48;;;;;;;25.13;17.00;;;;;;;6.08;61.64;94131.78;4972067;28;20120;-77
2021/01/22 03:45:14;;;;;;;26.92;17.20;;;;;;;6.06;61.54;94120.75;4968629;28;20511;-77
2021/01/22 03:47:40;;;;;;;26.13;15.20;;;;;;;6.04;61.95;94125.47;4974501;28;21300;-77
2021/01/22 03:50:06;;;;;;;24.73;15.52;;;;;;;6.07;61.94;94138.88;4969594;28;20039;-77
2021/01/22 03:52:32;;;;;;;23.33;15.05;;;;;;;6.12;61.57;94138.13;4972395;28;20237;-78
2021/01/22 03:54:57;;;;;;;27.42;16.65;;;;;;;6.08;61.12;94142.28;4967483;28;20045;-77
2021/01/22 03:57:23;;;;;;;26.27;16.70;;;;;;;6.08;61.28;94135.22;4969025;28;20042;-77
2021/01/22 03:59:48;;;;;;;25.38;16.15;;;;;;;6.08;61.99;94137.03;4969765;28;20545;-77
2021/01/22 04:02:13;;;;;;;27.50;17.92;;;;;;;6.08;61.93;94127.34;4973225;28;20081;-77
2021/01/22 04:04:39;;;;;;;22.23;14.68;;;;;;;6.12;61.59;94139.94;4968795;28;20071;-77
2021/01/22 04:07:04;;;;;;;20.55;14.60;;;;;;;5.99;61.42;94121.00;4971933;28;20081;-77
2021/01/22 04:09:30;;;;;;;23.60;15.98;;;;;;;6.04;61.93;94133.34;4966805;28;20130;-78
2021/01/22 04:11:57;;;;;;;25.05;16.60;;;;;;;6.00;61.75;94155.88;4970840;28;20315;-77
2021/01/22 04:14:22;;;;;;;23.67;15.50;;;;;;;6.03;61.74;94168.50;4970610;28;20030;-77
2021/01/22 04:16:48;;;;;;;24.42;15.40;;;;;;;5.99;61.69;94159.53;4974399;28;20039;-78
2021/01/22 04:19:13;;;;;;;22.13;15.05;;;;;;;5.92;61.84;94145.84;4969551;28;20081;-78
2021/01/22 04:21:39;;;;;;;17.73;12.88;;;;;;;5.87;63.25;94141.34;4967588;28;20053;-78
2021/01/22 04:24:05;;;;;;;15.13;11.73;;;;;;;5.89;63.57;94138.47;4972164;28;20050;-78
2021/01/22 04:26:30;;;;;;;19.90;13.23;;;;;;;5.96;63.24;94139.06;4975786;28;20029;-77
2021/01/22 04:28:57;;;;;;;22.00;13.23;;;;;;;5.93;63.07;94136.94;4974926;28;20038;-77
2021/01/22 04:31:23;;;;;;;23.05;12.88;;;;;;;6.04;62.20;94134.16;4969214;28;20141;-78
2021/01/22 04:33:49;;;;;;;23.25;13.90;;;;;;;6.04;62.40;94151.72;4972092;28;20609;-76
2021/01/22 04:36:14;;;;;;;21.00;14.00;;;;;;;6.04;62.84;94136.75;4971550;28;20027;-76
2021/01/22 04:38:40;;;;;;;21.48;13.88;;;;;;;6.11;62.60;94130.53;4979074;28;20109;-76
2021/01/22 04:41:05;;;;;;;21.38;12.48;;;;;;;6.14;62.85;94143.91;4954287;28;20046;-77
2021/01/22 04:43:31;;;;;;;18.73;12.88;;;;;;;6.06;64.01;94118.13;4973166;28;20080;-76
2021/01/22 04:45:56;;;;;;;18.88;12.73;;;;;;;6.20;63.75;94116.69;4975141;28;20121;-77
2021/01/22 04:48:22;;;;;;;18.10;12.32;;;;;;;6.29;62.85;94128.28;4972006;28;20542;-77
2021/01/22 04:50:50;;;;;;;21.25;13.55;;;;;;;6.30;62.44;94127.22;4974355;28;20022;-77
2021/01/22 04:53:16;;;;;;;18.98;11.95;;;;;;;6.34;61.67;94132.75;4972004;28;20046;-77
2021/01/22 04:55:47;;;;;;;21.60;14.23;;;;;;;6.31;62.36;94133.25;4973713;28;20523;-77
2021/01/22 04:58:16;;;;;;;25.85;16.60;;;;;;;6.28;63.42;94126.69;4977822;28;20039;-76
2021/01/22 05:00:42;;;;;;;20.08;13.48;;;;;;;6.36;63.87;94126.19;4971138;28;20467;-77
2021/01/22 05:03:09;;;;;;;19.30;11.23;;;;;;;6.47;63.41;94121.81;4969717;28;20042;-77
2021/01/22 05:05:35;;;;;;;18.95;10.82;;;;;;;6.60;62.96;94128.44;4977676;28;20080;-77
2021/01/22 05:08:03;;;;;;;17.83;11.02;;;;;;;6.68;62.69;94120.84;4973293;28;20039;-77
2021/01/22 05:10:28;;;;;;;38.72;23.15;;;;;;;6.72;63.25;94127.19;4956769;28;20042;-77
2021/01/22 05:12:54;;;;;;;45.13;25.55;;;;;;;6.74;61.93;94119.06;4966575;28;20054;-77
2021/01/22 05:15:24;;;;;;;31.85;18.30;;;;;;;6.68;60.81;94114.81;4973081;28;20053;-77
2021/01/22 05:18:06;;;;;;;17.58;11.95;;;;;;;6.58;62.36;94131.31;4972957;28;20105;-77
2021/01/22 05:20:36;;;;;;;19.20;11.85;;;;;;;6.62;62.61;94121.09;4975692;28;20023;-77
2021/01/22 05:23:04;;;;;;;21.00;13.10;;;;;;;6.78;62.25;94126.16;4952065;28;20138;-77
2021/01/22 05:25:30;;;;;;;25.63;13.27;;;;;;;6.82;61.97;94116.72;4976974;28;20523;-77
2021/01/22 05:27:57;;;;;;;20.27;11.90;;;;;;;6.86;61.81;94116.97;4952279;28;20070;-77
2021/01/22 05:30:28;;;;;;;19.23;12.52;;;;;;;6.90;61.57;94133.81;4972607;28;20046;-77
2021/01/22 05:33:15;;;;;;;17.77;11.85;;;;;;;7.00;61.34;94123.34;4937312;28;20413;-77
2021/01/22 05:35:40;;;;;;;20.08;12.15;;;;;;;6.97;61.14;94108.09;4944688;28;20547;-77
2021/01/22 05:38:06;;;;;;;19.83;13.02;;;;;;;6.99;61.15;94119.13;4938493;28;20039;-77
2021/01/22 05:40:32;;;;;;;19.30;13.18;;;;;;;7.10;61.10;94118.09;4958483;28;20042;-77
2021/01/22 05:42:58;;;;;;;19.73;12.48;;;;;;;7.10;61.14;94119.94;4940013;28;20089;-77
2021/01/22 05:45:44;;;;;;;19.83;12.77;;;;;;;7.17;60.87;94113.41;4941856;28;20035;-77
2021/01/22 05:48:28;;;;;;;18.67;12.57;;;;;;;7.16;60.42;94096.06;4936437;28;20040;-77
2021/01/22 05:50:58;;;;;;;20.05;13.40;;;;;;;7.30;60.34;94105.03;4940036;28;20118;-77
2021/01/22 05:53:26;;;;;;;29.17;18.02;;;;;;;7.34;59.98;94106.06;4954654;28;20019;-77
2021/01/22 05:56:06;;;;;;;52.55;30.65;;;;;;;7.27;59.77;94105.56;4956153;28;20071;-77
2021/01/22 05:58:32;;;;;;;31.67;20.98;;;;;;;7.31;59.62;94105.81;4940226;28;20397;-77
2021/01/22 06:01:12;;;;;;;38.78;23.35;;;;;;;7.40;59.45;94107.66;4941610;28;20035;-77
2021/01/22 06:03:39;;;;;;;33.75;21.33;;;;;;;7.40;58.91;94110.28;4939318;28;20050;-77
2021/01/22 06:06:06;;;;;;;33.05;20.17;;;;;;;7.38;58.64;94115.00;4942651;28;20043;-76
2021/01/22 06:08:32;;;;;;;30.02;18.63;;;;;;;7.41;59.13;94116.34;4940032;28;20432;-77
2021/01/22 06:11:00;;;;;;;28.33;17.83;;;;;;;7.44;59.46;94101.88;4939637;28;20035;-77
2021/01/22 06:13:27;;;;;;;25.40;14.68;;;;;;;7.42;59.62;94104.78;4935226;28;20050;-77
2021/01/22 06:16:00;;;;;;;21.38;12.90;;;;;;;7.40;59.71;94097.16;4937714;28;20054;-77
2021/01/22 06:18:32;;;;;;;17.90;13.25;;;;;;;7.49;60.01;94091.38;4947224;28;20134;-77
2021/01/22 06:21:13;;;;;;;56.92;33.47;;;;;;;7.63;60.02;94108.19;4937422;28;20400;-77
2021/01/22 06:23:39;;;;;;;60.72;35.40;;;;;;;7.69;58.60;94100.06;4939960;28;20055;-77
2021/01/22 06:26:05;;;;;;;57.22;35.35;;;;;;;7.64;58.49;94115.06;4955095;28;20039;-77
2021/01/22 06:28:34;;;;;;;58.53;31.50;;;;;;;7.60;57.78;94098.22;4924405;28;20036;-77
2021/01/22 06:30:59;;;;;;;44.85;25.58;;;;;;;7.70;57.44;94109.53;4939635;28;20415;-77
2021/01/22 06:33:25;;;;;;;47.75;30.02;;;;;;;7.71;57.40;94102.44;4967104;28;20042;-77
2021/01/22 06:35:52;;;;;;;50.65;29.23;;;;;;;7.75;57.47;94108.75;4968228;28;20041;-77
2021/01/22 06:38:22;;;;;;;80.70;46.30;;;;;;;7.74;57.42;94097.44;4971851;28;20050;-77
2021/01/22 06:40:51;;;;;;;71.03;45.35;;;;;;;7.82;57.51;94098.75;4946866;28;20436;-76
2021/01/22 06:43:18;;;;;;;56.00;35.25;;;;;;;7.73;57.74;94085.31;4947126;28;20494;-77
2021/01/22 06:45:44;;;;;;;69.03;40.92;;;;;;;7.94;57.73;94101.91;4942429;28;20065;-77
2021/01/22 06:48:10;;;;;;;58.28;36.13;;;;;;;8.02;57.31;94109.25;4945022;28;20492;-78
2021/01/22 06:50:37;;;;;;;59.80;38.35;;;;;;;8.10;57.07;94100.84;4963722;28;20045;-77
2021/01/22 06:53:10;;;;;;;59.83;38.65;;;;;;;8.16;57.01;94083.97;4964745;28;20842;-78
2021/01/22 06:55:51;;;;;;;45.95;31.00;;;;;;;8.18;56.87;94088.97;4944943;28;20054;-77
2021/01/22 06:58:25;;;;;;;48.13;30.45;;;;;;;8.30;56.58;94094.00;4949920;28;20042;-77
2021/01/22 07:00:56;;;;;;;41.33;28.27;;;;;;;8.40;56.81;94088.72;4951346;28;20057;-78
2021/01/22 07:03:37;;;;;;;33.67;22.85;;;;;;;8.45;56.48;94080.78;4965246;28;20740;-77
2021/01/22 07:06:30;;;;;;;23.63;16.15;;;;;;;8.42;56.35;94076.03;4960596;28;20063;-77
2021/01/22 07:08:56;;;;;;;24.73;15.57;;;;;;;8.36;56.39;94056.03;4958982;28;20038;-77
2021/01/22 07:11:25;;;;;;;27.77;17.25;;;;;;;8.37;56.51;94049.72;4959833;28;20478;-77
2021/01/22 07:13:52;;;;;;;27.63;15.98;;;;;;;8.46;56.60;94056.00;4961697;28;20511;-77
2021/01/22 07:16:17;;;;;;;49.15;29.55;;;;;;;8.58;56.45;94069.69;4966561;28;20046;-78
2021/01/22 07:18:43;;;;;;;54.80;35.22;;;;;;;8.58;55.64;94072.31;4966632;28;20113;-78
2021/01/22 07:21:22;;;;;;;61.95;40.03;;;;;;;8.52;55.38;94065.47;4962406;28;20051;-78
2021/01/22 07:23:47;;;;;;;55.33;37.80;;;;;;;8.54;55.03;94084.44;4978548;28;20035;-78
2021/01/22 07:26:14;;;;;;;55.25;38.72;;;;;;;8.51;55.16;94100.78;4965878;28;20490;-78
2021/01/22 07:28:53;;;;;;;59.92;37.45;;;;;;;8.51;55.44;94109.47;4962927;28;20077;-78
2021/01/22 07:31:53;;;;;;;55.03;36.47;;;;;;;8.50;55.48;94102.63;4971925;28;20057;-77
2021/01/22 07:34:52;;;;;;;62.70;43.17;;;;;;;8.56;55.28;94114.72;4981442;28;20105;-78
2021/01/22 07:37:23;;;;;;;53.17;34.25;;;;;;;8.56;55.04;94109.44;4927776;28;20038;-78
2021/01/22 07:39:50;;;;;;;45.72;32.15;;;;;;;8.56;54.93;94100.75;4956121;28;20046;-78
2021/01/22 07:42:16;;;;;;;45.03;31.33;;;;;;;8.59;54.86;94105.50;4959071;28;20166;-76
2021/01/22 07:44:45;;;;;;;48.25;31.65;;;;;;;8.60;54.75;94086.03;4965552;28;20026;-77
2021/01/22 07:47:22;;;;;;;41.78;29.35;;;;;;;8.56;54.84;94084.97;4955665;28;20522;-76
2021/01/22 07:49:51;;;;;;;39.28;25.35;;;;;;;8.69;54.76;94089.69;4959443;28;20057;-77
2021/01/22 07:52:17;;;;;;;38.25;24.33;;;;;;;8.69;54.73;94087.03;4957483;28;20050;-77
2021/01/22 07:54:42;;;;;;;41.03;25.38;;;;;;;8.80;54.63;94085.91;4953350;28;20616;-77
2021/01/22 07:57:14;;;;;;;38.58;27.45;;;;;;;8.85;55.22;94080.63;4954008;28;20415;-77
2021/01/22 07:59:41;;;;;;;37.83;27.75;;;;;;;8.82;55.10;94070.63;4965329;28;20113;-77
2021/01/22 08:02:13;;;;;;;36.08;25.58;;;;;;;8.86;55.06;94070.88;4962168;28;20042;-77
2021/01/22 08:04:38;;;;;;;53.05;33.40;;;;;;;8.88;55.42;94069.56;4965734;28;20035;-76
2021/01/22 08:07:04;;;;;;;55.38;36.15;;;;;;;8.93;55.07;94072.19;4964325;28;20045;-77
2021/01/22 08:09:29;;;;;;;56.03;33.95;;;;;;;8.92;55.02;94073.22;4965322;28;20051;-77
2021/01/22 08:12:10;;;;;;;54.25;33.50;;;;;;;8.94;54.93;94079.00;4966074;28;20282;-77
2021/01/22 08:14:36;;;;;;;55.85;39.42;;;;;;;8.97;55.27;94065.31;4967545;28;20014;-77
2021/01/22 08:17:06;;;;;;;70.95;48.08;;;;;;;8.93;55.17;94080.09;4961792;28;20207;-77
2021/01/22 08:19:35;;;;;;;72.35;48.88;;;;;;;8.97;55.18;94073.22;4964841;28;20047;-77
2021/01/22 08:22:02;;;;;;;69.22;45.72;;;;;;;9.02;55.24;94094.28;4964064;28;20162;-76
2021/01/22 08:24:27;;;;;;;85.05;53.30;;;;;;;9.03;55.00;94077.41;4964699;28;20039;-77
2021/01/22 08:27:04;;;;;;;67.47;45.78;;;;;;;9.06;54.99;94086.59;4964421;28;20093;-77
2021/01/22 08:29:32;;;;;;;77.78;51.95;;;;;;;9.18;54.81;94079.16;4967655;28;20022;-76
2021/01/22 08:31:58;;;;;;;79.25;49.92;;;;;;;9.25;54.70;94076.22;4973911;28;20137;-77
2021/01/22 08:34:24;;;;;;;66.13;40.55;;;;;;;9.36;54.34;94090.91;4963304;28;20161;-77
2021/01/22 08:36:51;;;;;;;44.15;28.42;;;;;;;9.42;53.54;94072.16;4964369;28;20101;-76
2021/01/22 08:39:17;;;;;;;47.45;31.55;;;;;;;9.49;53.45;94079.75;4960765;28;20058;-76
2021/01/22 08:41:43;;;;;;;41.55;26.38;;;;;;;9.51;53.56;94051.25;4965753;28;20038;-76
2021/01/22 08:44:08;;;;;;;33.17;22.75;;;;;;;9.61;53.24;94064.38;4960066;28;20069;-76
2021/01/22 08:46:45;;;;;;;32.17;22.13;;;;;;;9.62;52.94;94058.03;4965285;28;20042;-78
2021/01/22 08:49:12;;;;;;;26.40;18.08;;;;;;;9.54;53.29;94050.69;4962849;28;20038;-76
2021/01/22 08:51:39;;;;;;;24.95;18.25;;;;;;;9.69;53.05;94058.50;4964419;28;20126;-76
2021/01/22 08:54:06;;;;;;;29.63;18.33;;;;;;;9.60;52.95;94062.78;4961162;28;24101;-76
2021/01/22 08:56:32;;;;;;;32.70;19.15;;;;;;;9.70;53.03;94048.72;4969413;28;20085;-76
2021/01/22 08:58:58;;;;;;;24.85;16.13;;;;;;;9.71;52.74;94051.09;4964197;28;20042;-76
2021/01/22 09:01:50;;;;;;;24.83;16.35;;;;;;;9.78;52.45;94043.63;4964908;28;20049;-76
2021/01/22 09:04:22;;;;;;;22.10;15.55;;;;;;;9.92;52.40;94047.22;4954288;28;20129;-75
2021/01/22 09:06:49;;;;;;;23.35;13.98;;;;;;;10.06;52.15;94036.00;4962366;28;20038;-78
2021/01/22 09:09:15;;;;;;;18.63;14.65;;;;;;;10.21;51.44;94049.09;4958635;28;20134;-79
2021/01/22 09:11:41;;;;;;;20.23;14.32;;;;;;;10.32;51.22;94046.06;4966649;28;20142;-78
2021/01/22 09:14:06;;;;;;;22.15;15.80;;;;;;;10.53;50.81;94046.63;4961398;28;20042;-78
2021/01/22 09:16:45;;;;;;;20.70;15.02;;;;;;;10.70;50.08;94035.63;4964717;28;20043;-76
2021/01/22 09:19:10;;;;;;;19.33;12.85;;;;;;;10.85;49.65;94046.75;4961612;28;20066;-77
2021/01/22 09:21:51;;;;;;;21.02;14.32;;;;;;;11.02;49.21;94045.50;4963945;28;20112;-77
2021/01/22 09:24:17;;;;;;;19.88;12.15;;;;;;;11.12;48.77;94034.78;4959473;28;20057;-77
2021/01/22 09:26:42;;;;;;;21.25;12.13;;;;;;;11.33;49.17;94020.22;4965283;28;20038;-77
2021/01/22 09:29:07;;;;;;;14.85;10.30;;;;;;;11.55;48.51;94028.34;4961738;28;20054;-76
2021/01/22 09:31:33;;;;;;;14.30;10.23;;;;;;;11.80;47.85;94021.88;4962213;28;20054;-75
2021/01/22 09:33:58;;;;;;;13.55;9.50;;;;;;;11.92;47.07;94008.97;4959519;28;20153;-76
2021/01/22 09:36:24;;;;;;;12.90;9.70;;;;;;;12.00;46.77;94007.50;4951355;28;20046;-76
2021/01/22 09:38:49;;;;;;;14.70;9.68;;;;;;;12.02;46.64;93998.19;4965966;28;20030;-76
2021/01/22 09:41:15;;;;;;;15.40;9.50;;;;;;;11.95;46.71;93975.81;4962365;28;20654;-75
2021/01/22 09:43:40;;;;;;;14.88;9.70;;;;;;;12.05;46.65;93994.19;4954662;28;20038;-76
2021/01/22 09:46:05;;;;;;;15.40;9.43;;;;;;;12.14;46.64;93995.84;4953878;28;20038;-76
2021/01/22 09:48:31;;;;;;;14.60;9.50;;;;;;;12.21;46.62;93995.47;4955183;28;20380;-76
2021/01/22 09:50:56;;;;;;;14.35;9.25;;;;;;;12.23;46.67;93982.72;4954386;28;20035;-77
2021/01/22 09:53:22;;;;;;;11.80;9.27;;;;;;;12.27;46.08;93975.75;4956375;28;20038;-76
2021/01/22 09:55:47;;;;;;;15.52;10.98;;;;;;;12.28;45.94;93969.38;4953228;28;20539;-77
2021/01/22 09:58:13;;;;;;;15.10;10.02;;;;;;;12.30;46.14;93964.56;4955748;28;20053;-77
2021/01/22 10:00:38;;;;;;;15.02;9.60;;;;;;;12.31;46.00;93955.56;4956181;28;20049;-76
2021/01/22 10:03:04;;;;;;;15.73;9.52;;;;;;;12.44;45.74;93951.31;4974754;28;20499;-76
2021/01/22 10:05:29;;;;;;;17.38;10.93;;;;;;;12.53;45.94;93952.97;4965786;28;20050;-76
2021/01/22 10:07:55;;;;;;;18.27;10.55;;;;;;;12.54;45.57;93951.91;4957135;28;20049;-77
2021/01/22 10:10:20;;;;;;;15.85;10.35;;;;;;;12.50;45.22;93940.31;4961051;28;20034;-76
2021/01/22 10:12:46;;;;;;;14.68;9.85;;;;;;;12.62;45.15;93958.34;4955759;28;20209;-76
2021/01/22 10:15:12;;;;;;;16.20;10.55;;;;;;;12.63;45.57;93937.94;4956153;28;20446;-76
2021/01/22 10:17:37;;;;;;;17.73;9.60;;;;;;;12.64;45.36;93955.41;4961261;28;20057;-76
2021/01/22 10:20:03;;;;;;;22.70;13.98;;;;;;;12.83;45.32;93932.97;4964989;28;20929;-76
2021/01/22 10:22:29;;;;;;;20.42;13.35;;;;;;;12.89;44.98;93946.94;4960864;28;20055;-76
2021/01/22 10:24:54;;;;;;;22.15;13.02;;;;;;;12.86;44.27;93958.91;4959911;28;20048;-76
2021/01/22 10:27:20;;;;;;;19.15;13.70;;;;;;;12.78;45.09;93945.56;4956585;28;20054;-76
2021/01/22 10:29:45;;;;;;;18.15;13.60;;;;;;;12.82;44.86;93959.78;4961270;28;20495;-76
2021/01/22 10:32:10;;;;;;;23.73;15.82;;;;;;;12.92;44.50;93951.63;4957837;28;20050;-76
2021/01/22 10:34:36;;;;;;;24.67;13.35;;;;;;;12.99;44.51;93930.78;4957307;28;20053;-76
2021/01/22 10:37:02;;;;;;;19.60;12.75;;;;;;;13.09;44.32;93935.06;4955712;28;20394;-77
2021/01/22 10:39:28;;;;;;;21.98;13.63;;;;;;;13.17;44.78;93926.41;4956649;28;20055;-76
2021/01/22 10:41:53;;;;;;;22.80;15.52;;;;;;;13.22;44.44;93932.41;4966109;28;20080;-76
2021/01/22 10:44:19;;;;;;;23.83;15.02;;;;;;;13.34;44.55;93921.25;4955719;28;20014;-76
2021/01/22 10:46:44;;;;;;;24.88;15.25;;;;;;;13.36;44.46;93913.75;4957576;28;20701;-76
2021/01/22 10:49:10;;;;;;;23.88;13.85;;;;;;;13.51;44.83;93916.03;4955385;28;20530;-76
2021/01/22 10:51:35;;;;;;;21.27;14.80;;;;;;;13.64;44.19;93911.72;4959593;28;20082;-76
2021/01/22 10:54:01;;;;;;;25.98;15.50;;;;;;;13.67;43.75;93887.25;4956635;28;20022;-76
2021/01/22 10:56:26;;;;;;;29.67;15.27;;;;;;;13.85;43.20;93888.88;4959212;28;20037;-76
2021/01/22 10:58:52;;;;;;;28.70;17.23;;;;;;;14.04;42.53;93884.09;4958278;28;20065;-76
2021/01/22 11:01:17;;;;;;;22.27;15.75;;;;;;;14.15;42.00;93864.16;4959359;28;20077;-76
2021/01/22 11:03:43;;;;;;;25.05;15.73;;;;;;;14.16;41.21;93871.03;4957849;28;20046;-76
2021/01/22 11:06:09;;;;;;;29.83;19.08;;;;;;;14.09;40.95;93860.06;4956333;28;20050;-76
2021/01/22 11:08:34;;;;;;;36.13;22.05;;;;;;;13.96;41.59;93845.00;4959913;28;20026;-76
2021/01/22 11:10:59;;;;;;;34.58;23.17;;;;;;;13.86;41.53;93853.25;4956630;28;20065;-76
2021/01/22 11:13:25;;;;;;;43.42;25.90;;;;;;;13.70;41.56;93847.56;4959892;28;20073;-76
2021/01/22 11:15:50;;;;;;;40.40;26.95;;;;;;;13.69;41.92;93834.59;4954402;28;20041;-77
2021/01/22 11:18:16;;;;;;;47.80;27.63;;;;;;;13.77;42.36;93844.47;4956375;28;20606;-76
2021/01/22 11:20:41;;;;;;;38.97;27.25;;;;;;;13.81;42.38;93840.13;4955636;28;20455;-76
2021/01/22 11:23:07;;;;;;;47.17;30.48;;;;;;;13.84;42.25;93834.97;4955213;28;20062;-77
2021/01/22 11:25:33;;;;;;;52.65;33.15;;;;;;;13.79;42.15;93835.09;4956229;28;20744;-76